createdAt,value
2024-04-06T00:00:59.243Z,23.85
2024-04-06T00:01:59.227Z,23.85
2024-04-06T00:02:59.195Z,23.84
2024-04-06T00:03:59.204Z,23.85
2024-04-06T00:04:59.208Z,23.84
2024-04-06T00:05:59.215Z,23.84
2024-04-06T00:07:03.122Z,23.83
2024-04-06T00:08:06.087Z,23.83
2024-04-06T00:09:00.219Z,23.83
2024-04-06T00:09:59.213Z,23.83
2024-04-06T00:10:59.217Z,23.82
2024-04-06T00:11:59.220Z,23.81
2024-04-06T00:12:59.221Z,23.82
2024-04-06T00:13:59.243Z,23.82
2024-04-06T00:14:59.234Z,23.82
2024-04-06T00:15:59.248Z,23.81
2024-04-06T00:16:59.290Z,23.82
2024-04-06T00:17:59.364Z,23.81
2024-04-06T00:18:59.514Z,23.81
2024-04-06T00:19:59.564Z,23.81
2024-04-06T00:20:59.666Z,23.80
2024-04-06T00:21:59.765Z,23.80
2024-04-06T00:22:59.873Z,23.80
2024-04-06T00:24:00.002Z,23.80
2024-04-06T00:25:00.066Z,23.79
2024-04-06T00:26:00.181Z,23.79
2024-04-06T00:27:00.286Z,23.79
2024-04-06T00:28:00.386Z,23.79
2024-04-06T00:29:00.538Z,23.78
2024-04-06T00:30:00.625Z,23.79
2024-04-06T00:31:00.688Z,23.78
2024-04-06T00:32:00.844Z,23.78
2024-04-06T00:33:00.905Z,23.78
2024-04-06T00:34:01.019Z,23.78
2024-04-06T00:35:01.122Z,23.77
2024-04-06T00:36:01.226Z,23.78
2024-04-06T00:37:01.333Z,23.78
2024-04-06T00:38:01.440Z,23.77
2024-04-06T00:39:01.552Z,23.77
2024-04-06T00:40:01.678Z,23.76
2024-04-06T00:41:01.790Z,23.76
2024-04-06T00:42:01.839Z,23.76
2024-04-06T00:43:01.964Z,23.77
2024-04-06T00:44:03.972Z,23.76
2024-04-06T00:45:02.148Z,23.76
2024-04-06T00:46:02.178Z,23.75
2024-04-06T00:47:02.243Z,23.76
2024-04-06T00:48:02.273Z,23.75
2024-04-06T00:49:02.327Z,23.75
2024-04-06T00:50:02.393Z,23.75
2024-04-06T00:51:02.498Z,23.74
2024-04-06T00:52:02.607Z,23.74
2024-04-06T00:53:02.694Z,23.74
2024-04-06T00:54:02.805Z,23.73
2024-04-06T00:55:02.899Z,23.74
2024-04-06T00:56:03.008Z,23.74
2024-04-06T00:57:03.100Z,23.73
2024-04-06T00:58:03.215Z,23.72
2024-04-06T00:59:03.326Z,23.73
2024-04-06T01:00:03.412Z,23.73
2024-04-06T01:01:03.523Z,23.73
2024-04-06T01:02:05.582Z,23.72
2024-04-06T01:03:03.662Z,23.72
2024-04-06T01:04:03.710Z,23.72
2024-04-06T01:05:03.780Z,23.72
2024-04-06T01:06:03.888Z,23.72
2024-04-06T01:07:03.979Z,23.71
2024-04-06T01:08:04.113Z,23.71
2024-04-06T01:09:04.184Z,23.71
2024-04-06T01:10:04.308Z,23.70
2024-04-06T01:11:04.378Z,23.70
2024-04-06T01:12:04.479Z,23.70
2024-04-06T01:13:04.647Z,23.70
2024-04-06T01:14:04.691Z,23.70
2024-04-06T01:15:04.808Z,23.69
2024-04-06T01:16:04.875Z,23.69
2024-04-06T01:17:04.979Z,23.70
2024-04-06T01:18:05.081Z,23.69
2024-04-06T01:19:05.196Z,23.68
2024-04-06T01:20:05.273Z,23.69
2024-04-06T01:21:05.358Z,23.68
2024-04-06T01:22:05.467Z,23.67
2024-04-06T01:23:05.547Z,23.68
2024-04-06T01:24:05.685Z,23.68
2024-04-06T01:25:05.772Z,23.67
2024-04-06T01:26:05.866Z,23.68
2024-04-06T01:27:05.968Z,23.67
2024-04-06T01:28:06.076Z,23.68
2024-04-06T01:29:06.187Z,23.66
2024-04-06T01:30:06.267Z,23.67
2024-04-06T01:31:06.346Z,23.66
2024-04-06T01:32:06.459Z,23.66
2024-04-06T01:33:06.565Z,23.65
2024-04-06T01:34:06.670Z,23.65
2024-04-06T01:35:06.784Z,23.65
2024-04-06T01:36:06.856Z,23.65
2024-04-06T01:37:06.947Z,23.65
2024-04-06T01:38:07.067Z,23.65
2024-04-06T01:39:07.175Z,23.64
2024-04-06T01:40:07.264Z,23.64
2024-04-06T01:41:07.391Z,23.65
2024-04-06T01:42:07.472Z,23.64
2024-04-06T01:43:07.563Z,23.64
2024-04-06T01:44:07.664Z,23.63
2024-04-06T01:45:07.769Z,23.63
2024-04-06T01:46:07.857Z,23.63
2024-04-06T01:47:07.961Z,23.62
2024-04-06T01:48:08.062Z,23.62
2024-04-06T01:49:08.165Z,23.62
2024-04-06T01:50:08.247Z,23.62
2024-04-06T01:51:08.356Z,23.62
2024-04-06T01:52:08.442Z,23.62
2024-04-06T01:53:08.547Z,23.61
2024-04-06T01:54:08.667Z,23.62
2024-04-06T01:55:08.737Z,23.62
2024-04-06T01:56:08.829Z,23.61
2024-04-06T01:57:08.917Z,23.61
2024-04-06T01:58:08.999Z,23.61
2024-04-06T01:59:09.095Z,23.61
2024-04-06T02:00:09.202Z,23.61
2024-04-06T02:01:09.294Z,23.60
2024-04-06T02:02:09.375Z,23.60
2024-04-06T02:03:09.491Z,23.60
2024-04-06T02:04:09.562Z,23.59
2024-04-06T02:05:09.646Z,23.59
2024-04-06T02:06:09.735Z,23.59
2024-04-06T02:07:09.825Z,23.58
2024-04-06T02:08:09.928Z,23.59
2024-04-06T02:09:10.020Z,23.58
2024-04-06T02:10:10.092Z,23.58
2024-04-06T02:11:10.204Z,23.58
2024-04-06T02:12:10.290Z,23.58
2024-04-06T02:13:10.391Z,23.58
2024-04-06T02:14:10.494Z,23.57
2024-04-06T02:15:10.594Z,23.57
2024-04-06T02:16:10.689Z,23.57
2024-04-06T02:17:10.755Z,23.57
2024-04-06T02:18:10.872Z,23.57
2024-04-06T02:19:10.943Z,23.56
2024-04-06T02:20:11.046Z,23.56
2024-04-06T02:21:11.149Z,23.56
2024-04-06T02:22:11.227Z,23.56
2024-04-06T02:23:11.352Z,23.56
2024-04-06T02:24:11.432Z,23.56
2024-04-06T02:25:11.611Z,23.55
2024-04-06T02:26:11.619Z,23.55
2024-04-06T02:27:11.714Z,23.55
2024-04-06T02:28:11.823Z,23.54
2024-04-06T02:29:11.911Z,23.54
2024-04-06T02:30:12.032Z,23.54
2024-04-06T02:31:12.109Z,23.54
2024-04-06T02:32:12.187Z,23.54
2024-04-06T02:33:12.298Z,23.54
2024-04-06T02:34:12.411Z,23.53
2024-04-06T02:35:12.520Z,23.53
2024-04-06T02:36:12.606Z,23.53
2024-04-06T02:37:12.701Z,23.53
2024-04-06T02:38:12.834Z,23.53
2024-04-06T02:39:12.909Z,23.53
2024-04-06T02:40:13.012Z,23.53
2024-04-06T02:41:13.122Z,23.52
2024-04-06T02:42:13.213Z,23.52
2024-04-06T02:43:14.238Z,23.51
2024-04-06T02:44:13.451Z,23.52
2024-04-06T02:45:13.361Z,23.52
2024-04-06T02:46:13.507Z,23.51
2024-04-06T02:47:13.464Z,23.51
2024-04-06T02:48:13.503Z,23.50
2024-04-06T02:49:13.496Z,23.50
2024-04-06T02:50:13.568Z,23.50
2024-04-06T02:51:13.648Z,23.50
2024-04-06T02:52:13.760Z,23.49
2024-04-06T02:53:13.873Z,23.49
2024-04-06T02:54:13.978Z,23.49
2024-04-06T02:55:14.034Z,23.49
2024-04-06T02:56:14.148Z,23.49
2024-04-06T02:57:14.222Z,23.48
2024-04-06T02:58:14.297Z,23.48
2024-04-06T02:59:14.413Z,23.48
2024-04-06T03:00:14.493Z,23.47
2024-04-06T03:01:14.587Z,23.48
2024-04-06T03:02:14.676Z,23.47
2024-04-06T03:03:14.755Z,23.47
2024-04-06T03:04:24.877Z,23.47
2024-04-06T03:05:14.872Z,23.46
2024-04-06T03:06:14.850Z,23.46
2024-04-06T03:07:14.835Z,23.46
2024-04-06T03:08:14.842Z,23.46
2024-04-06T03:09:14.858Z,23.46
2024-04-06T03:10:14.872Z,23.46
2024-04-06T03:11:14.867Z,23.46
2024-04-06T03:12:14.870Z,23.45
2024-04-06T03:13:14.877Z,23.45
2024-04-06T03:14:14.893Z,23.45
2024-04-06T03:15:14.893Z,23.44
2024-04-06T03:16:14.870Z,23.45
2024-04-06T03:17:14.884Z,23.44
2024-04-06T03:18:14.880Z,23.44
2024-04-06T03:19:25.669Z,23.44
2024-04-06T03:20:14.871Z,23.42
2024-04-06T03:21:14.879Z,23.42
2024-04-06T03:22:14.900Z,23.43
2024-04-06T03:23:14.873Z,23.42
2024-04-06T03:24:19.897Z,23.43
2024-04-06T03:25:14.876Z,23.41
2024-04-06T03:26:14.912Z,23.41
2024-04-06T03:27:14.873Z,23.42
2024-04-06T03:28:14.874Z,23.41
2024-04-06T03:29:14.885Z,23.41
2024-04-06T03:30:14.886Z,23.41
2024-04-06T03:31:14.908Z,23.41
2024-04-06T03:32:14.904Z,23.40
2024-04-06T03:33:15.002Z,23.40
2024-04-06T03:34:15.074Z,23.40
2024-04-06T03:35:15.135Z,23.40
2024-04-06T03:36:15.242Z,23.40
2024-04-06T03:37:15.328Z,23.40
2024-04-06T03:38:15.400Z,23.39
2024-04-06T03:39:15.470Z,23.39
2024-04-06T03:40:15.545Z,23.39
2024-04-06T03:41:15.658Z,23.38
2024-04-06T03:42:15.738Z,23.38
2024-04-06T03:43:15.812Z,23.38
2024-04-06T03:44:15.981Z,23.38
2024-04-06T03:45:15.995Z,23.38
2024-04-06T03:46:16.146Z,23.37
2024-04-06T03:47:16.212Z,23.37
2024-04-06T03:48:16.346Z,23.37
2024-04-06T03:49:16.465Z,23.37
2024-04-06T03:50:16.531Z,23.37
2024-04-06T03:51:16.620Z,23.36
2024-04-06T03:52:16.728Z,23.36
2024-04-06T03:53:16.834Z,23.35
2024-04-06T03:54:16.945Z,23.36
2024-04-06T03:55:17.050Z,23.35
2024-04-06T03:56:17.135Z,23.35
2024-04-06T03:57:17.243Z,23.35
2024-04-06T03:58:17.359Z,23.35
2024-04-06T03:59:17.491Z,23.34
2024-04-06T04:00:17.581Z,23.34
2024-04-06T04:01:17.700Z,23.34
2024-04-06T04:02:17.816Z,23.34
2024-04-06T04:03:17.932Z,23.33
2024-04-06T04:04:18.039Z,23.33
2024-04-06T04:05:18.149Z,23.33
2024-04-06T04:06:18.252Z,23.33
2024-04-06T04:07:18.351Z,23.32
2024-04-06T04:08:18.437Z,23.33
2024-04-06T04:09:23.566Z,23.32
2024-04-06T04:10:18.552Z,23.31
2024-04-06T04:11:18.536Z,23.32
2024-04-06T04:12:18.552Z,23.32
2024-04-06T04:13:18.547Z,23.32
2024-04-06T04:14:18.578Z,23.31
2024-04-06T04:15:18.566Z,23.31
2024-04-06T04:16:18.565Z,23.30
2024-04-06T04:17:18.666Z,23.30
2024-04-06T04:18:18.746Z,23.30
2024-04-06T04:19:18.908Z,23.31
2024-04-06T04:20:18.965Z,23.31
2024-04-06T04:21:19.052Z,23.30
2024-04-06T04:22:19.160Z,23.29
2024-04-06T04:23:19.246Z,23.30
2024-04-06T04:24:19.408Z,23.29
2024-04-06T04:25:19.468Z,23.28
2024-04-06T04:26:19.562Z,23.29
2024-04-06T04:27:19.666Z,23.29
2024-04-06T04:28:26.912Z,23.26
2024-04-06T04:29:26.888Z,23.27
2024-04-06T04:30:26.916Z,23.27
2024-04-06T04:31:26.906Z,23.27
2024-04-06T04:32:26.907Z,23.27
2024-04-06T04:33:26.915Z,23.26
2024-04-06T04:34:27.002Z,23.27
2024-04-06T04:35:27.076Z,23.27
2024-04-06T04:36:27.202Z,23.26
2024-04-06T04:37:27.276Z,23.26
2024-04-06T04:38:27.369Z,23.26
2024-04-06T04:39:27.458Z,23.27
2024-04-06T04:40:27.537Z,23.25
2024-04-06T04:41:27.680Z,23.26
2024-04-06T04:42:27.731Z,23.25
2024-04-06T04:43:27.828Z,23.24
2024-04-06T04:44:38.267Z,23.25
2024-04-06T04:45:28.924Z,23.25
2024-04-06T04:46:27.900Z,23.23
2024-04-06T04:47:27.928Z,23.23
2024-04-06T04:48:27.900Z,23.23
2024-04-06T04:49:27.910Z,23.23
2024-04-06T04:50:28.017Z,23.23
2024-04-06T04:51:27.921Z,23.23
2024-04-06T04:52:27.936Z,23.22
2024-04-06T04:53:28.071Z,23.22
2024-04-06T04:54:28.149Z,23.22
2024-04-06T04:55:28.220Z,23.21
2024-04-06T04:56:28.298Z,23.22
2024-04-06T04:57:28.360Z,23.21
2024-04-06T04:58:28.479Z,23.21
2024-04-06T04:59:28.577Z,23.21
2024-04-06T05:00:28.678Z,23.20
2024-04-06T05:01:28.722Z,23.21
2024-04-06T05:02:28.864Z,23.20
2024-04-06T05:03:28.887Z,23.20
2024-04-06T05:04:28.996Z,23.20
2024-04-06T05:05:29.097Z,23.20
2024-04-06T05:06:29.159Z,23.19
2024-04-06T05:07:29.255Z,23.19
2024-04-06T05:08:29.380Z,23.19
2024-04-06T05:09:29.425Z,23.19
2024-04-06T05:10:29.521Z,23.19
2024-04-06T05:11:29.602Z,23.18
2024-04-06T05:12:29.699Z,23.17
2024-04-06T05:13:29.785Z,23.18
2024-04-06T05:14:29.955Z,23.17
2024-04-06T05:15:29.965Z,23.17
2024-04-06T05:16:30.033Z,23.17
2024-04-06T05:17:30.285Z,23.16
2024-04-06T05:18:30.226Z,23.16
2024-04-06T05:19:31.013Z,23.16
2024-04-06T05:20:30.376Z,23.16
2024-04-06T05:21:30.340Z,23.16
2024-04-06T05:22:30.346Z,23.15
2024-04-06T05:23:30.389Z,23.15
2024-04-06T05:24:35.425Z,23.15
2024-04-06T05:25:30.406Z,23.15
2024-04-06T05:26:30.435Z,23.14
2024-04-06T05:27:30.433Z,23.15
2024-04-06T05:28:30.445Z,23.14
2024-04-06T05:29:35.519Z,23.13
2024-04-06T05:30:30.436Z,23.14
2024-04-06T05:31:30.447Z,23.14
2024-04-06T05:32:30.533Z,23.14
2024-04-06T05:33:30.457Z,23.14
2024-04-06T05:34:30.471Z,23.13
2024-04-06T05:35:30.515Z,23.13
2024-04-06T05:36:30.542Z,23.13
2024-04-06T05:37:30.625Z,23.13
2024-04-06T05:38:30.754Z,23.12
2024-04-06T05:39:30.804Z,23.12
2024-04-06T05:40:30.942Z,23.12
2024-04-06T05:41:30.974Z,23.12
2024-04-06T05:42:31.028Z,23.12
2024-04-06T05:43:31.140Z,23.12
2024-04-06T05:44:31.300Z,23.12
2024-04-06T05:45:31.264Z,23.12
2024-04-06T05:46:31.376Z,23.12
2024-04-06T05:47:31.511Z,23.11
2024-04-06T05:48:31.489Z,23.11
2024-04-06T05:49:36.618Z,23.12
2024-04-06T05:50:31.592Z,23.11
2024-04-06T05:51:31.591Z,23.11
2024-04-06T05:52:31.616Z,23.11
2024-04-06T05:53:31.613Z,23.11
2024-04-06T05:54:31.583Z,23.11
2024-04-06T05:55:31.592Z,23.11
2024-04-06T05:56:31.655Z,23.11
2024-04-06T05:57:31.720Z,23.11
2024-04-06T05:58:35.129Z,23.11
2024-04-06T05:59:31.859Z,23.10
2024-04-06T06:00:31.844Z,23.11
2024-04-06T06:01:31.784Z,23.10
2024-04-06T06:02:31.821Z,23.10
2024-04-06T06:03:31.863Z,23.10
2024-04-06T06:04:31.811Z,23.10
2024-04-06T06:05:31.864Z,23.10
2024-04-06T06:06:31.808Z,23.10
2024-04-06T06:07:31.813Z,23.10
2024-04-06T06:08:31.858Z,23.11
2024-04-06T06:09:31.802Z,23.10
2024-04-06T06:10:31.834Z,23.10
2024-04-06T06:11:31.817Z,23.10
2024-04-06T06:12:31.817Z,23.10
2024-04-06T06:13:31.861Z,23.10
2024-04-06T06:14:31.827Z,23.11
2024-04-06T06:15:31.831Z,23.10
2024-04-06T06:16:31.820Z,23.10
2024-04-06T06:17:31.866Z,23.10
2024-04-06T06:18:31.808Z,23.10
2024-04-06T06:19:31.810Z,23.10
2024-04-06T06:20:31.832Z,23.11
2024-04-06T06:21:31.824Z,23.11
2024-04-06T06:22:31.832Z,23.11
2024-04-06T06:23:31.820Z,23.11
2024-04-06T06:24:31.824Z,23.11
2024-04-06T06:25:31.812Z,23.11
2024-04-06T06:26:31.816Z,23.11
2024-04-06T06:27:31.817Z,23.11
2024-04-06T06:28:31.855Z,23.11
2024-04-06T06:29:31.851Z,23.11
2024-04-06T06:30:31.833Z,23.11
2024-04-06T06:31:34.801Z,23.11
2024-04-06T06:32:31.887Z,23.11
2024-04-06T06:33:31.847Z,23.11
2024-04-06T06:34:31.832Z,23.11
2024-04-06T06:35:31.858Z,23.11
2024-04-06T06:38:31.894Z,23.11
2024-04-06T06:41:31.860Z,23.10
2024-04-06T06:42:31.842Z,23.11
2024-04-06T06:43:31.851Z,23.10
2024-04-06T06:44:31.914Z,23.10
2024-04-06T06:45:31.893Z,23.11
2024-04-06T06:46:31.872Z,23.11
2024-04-06T06:47:31.926Z,23.11
2024-04-06T06:48:31.883Z,23.11
2024-04-06T06:49:31.898Z,23.11
2024-04-06T06:50:31.897Z,23.12
2024-04-06T06:51:31.883Z,23.11
2024-04-06T06:52:31.878Z,23.11
2024-04-06T06:53:31.924Z,23.11
2024-04-06T06:54:31.905Z,23.11
2024-04-06T06:55:31.904Z,23.11
2024-04-06T06:56:31.933Z,23.11
2024-04-06T06:57:31.908Z,23.11
2024-04-06T06:58:31.887Z,23.11
2024-04-06T07:00:31.876Z,23.11
2024-04-06T07:01:31.875Z,23.11
2024-04-06T07:02:31.885Z,23.11
2024-04-06T07:03:31.893Z,23.11
2024-04-06T07:04:31.881Z,23.11
2024-04-06T07:05:31.898Z,23.12
2024-04-06T07:07:31.903Z,23.11
2024-04-06T07:08:31.907Z,23.12
2024-04-06T07:09:31.909Z,23.11
2024-04-06T07:10:31.935Z,23.12
2024-04-06T07:11:31.932Z,23.12
2024-04-06T07:12:31.920Z,23.12
2024-04-06T07:13:31.958Z,23.12
2024-04-06T07:14:31.931Z,23.12
2024-04-06T07:15:31.947Z,23.12
2024-04-06T07:16:31.956Z,23.12
2024-04-06T07:17:31.950Z,23.12
2024-04-06T07:18:31.922Z,23.12
2024-04-06T07:19:31.924Z,23.12
2024-04-06T07:20:31.940Z,23.12
2024-04-06T07:21:31.937Z,23.12
2024-04-06T07:22:31.917Z,23.13
2024-04-06T07:23:31.924Z,23.12
2024-04-06T07:24:31.942Z,23.12
2024-04-06T07:25:31.940Z,23.12
2024-04-06T07:26:31.947Z,23.13
2024-04-06T07:27:31.947Z,23.13
2024-04-06T07:28:31.953Z,23.13
2024-04-06T07:29:31.948Z,23.13
2024-04-06T07:30:32.073Z,23.13
2024-04-06T07:31:31.939Z,23.13
2024-04-06T07:32:31.966Z,23.12
2024-04-06T07:33:31.967Z,23.13
2024-04-06T07:34:31.974Z,23.12
2024-04-06T07:35:31.969Z,23.13
2024-04-06T07:36:31.942Z,23.12
2024-04-06T07:37:31.944Z,23.13
2024-04-06T07:38:31.999Z,23.13
2024-04-06T07:39:32.955Z,23.12
2024-04-06T07:40:31.955Z,23.13
2024-04-06T07:41:31.969Z,23.13
2024-04-06T07:42:31.973Z,23.14
2024-04-06T07:43:31.963Z,23.15
2024-04-06T07:44:31.975Z,23.14
2024-04-06T07:45:31.967Z,23.14
2024-04-06T07:46:31.966Z,23.15
2024-04-06T07:47:32.017Z,23.14
2024-04-06T07:48:31.954Z,23.15
2024-04-06T07:49:31.963Z,23.14
2024-04-06T07:50:31.973Z,23.14
2024-04-06T07:51:31.982Z,23.15
2024-04-06T07:52:31.960Z,23.15
2024-04-06T07:53:31.994Z,23.15
2024-04-06T07:54:31.959Z,23.15
2024-04-06T07:55:31.983Z,23.15
2024-04-06T07:56:31.980Z,23.15
2024-04-06T07:57:32.056Z,23.16
2024-04-06T07:58:32.203Z,23.16
2024-04-06T07:59:32.217Z,23.16
2024-04-06T08:00:32.317Z,23.15
2024-04-06T08:01:32.367Z,23.15
2024-04-06T08:02:32.427Z,23.16
2024-04-06T08:03:32.534Z,23.16
2024-04-06T08:04:32.638Z,23.16
2024-04-06T08:05:32.726Z,23.16
2024-04-06T08:06:32.826Z,23.16
2024-04-06T08:07:32.865Z,23.16
2024-04-06T08:08:32.968Z,23.16
2024-04-06T08:09:33.079Z,23.17
2024-04-06T08:10:33.127Z,23.17
2024-04-06T08:11:33.226Z,23.17
2024-04-06T08:12:33.310Z,23.17
2024-04-06T08:13:33.388Z,23.17
2024-04-06T08:14:33.458Z,23.17
2024-04-06T08:15:33.536Z,23.18
2024-04-06T08:16:33.620Z,23.17
2024-04-06T08:17:33.755Z,23.17
2024-04-06T08:18:33.799Z,23.17
2024-04-06T08:19:33.902Z,23.18
2024-04-06T08:20:33.987Z,23.18
2024-04-06T08:21:34.089Z,23.18
2024-04-06T08:22:34.164Z,23.18
2024-04-06T08:23:34.241Z,23.19
2024-04-06T08:24:34.326Z,23.18
2024-04-06T08:25:34.415Z,23.19
2024-04-06T08:26:34.499Z,23.19
2024-04-06T08:27:34.583Z,23.20
2024-04-06T08:28:34.647Z,23.19
2024-04-06T08:29:34.734Z,23.20
2024-04-06T08:30:34.804Z,23.19
2024-04-06T08:31:34.909Z,23.20
2024-04-06T08:32:34.998Z,23.20
2024-04-06T08:33:35.102Z,23.20
2024-04-06T08:34:35.171Z,23.20
2024-04-06T08:35:35.258Z,23.20
2024-04-06T08:36:35.316Z,23.21
2024-04-06T08:37:35.420Z,23.21
2024-04-06T08:38:35.538Z,23.22
2024-04-06T08:39:35.622Z,23.21
2024-04-06T08:40:35.745Z,23.21
2024-04-06T08:41:35.793Z,23.22
2024-04-06T08:42:35.903Z,23.22
2024-04-06T08:43:36.018Z,23.22
2024-04-06T08:44:36.122Z,23.23
2024-04-06T08:45:36.165Z,23.24
2024-04-06T08:46:36.239Z,23.24
2024-04-06T08:47:36.325Z,23.24
2024-04-06T08:48:36.396Z,23.24
2024-04-06T08:49:36.510Z,23.24
2024-04-06T08:50:36.579Z,23.24
2024-04-06T08:51:36.653Z,23.24
2024-04-06T08:52:36.726Z,23.24
2024-04-06T08:53:36.840Z,23.25
2024-04-06T08:54:36.908Z,23.25
2024-04-06T08:55:37.029Z,23.26
2024-04-06T08:56:37.104Z,23.25
2024-04-06T08:57:37.211Z,23.26
2024-04-06T08:58:44.426Z,23.23
2024-04-06T08:59:44.435Z,23.25
2024-04-06T09:00:44.433Z,23.26
2024-04-06T09:01:44.428Z,23.26
2024-04-06T09:02:44.434Z,23.27
2024-04-06T09:03:44.459Z,23.28
2024-04-06T09:04:44.451Z,23.28
2024-04-06T09:05:44.458Z,23.27
2024-04-06T09:06:44.443Z,23.28
2024-04-06T09:07:44.440Z,23.28
2024-04-06T09:08:44.453Z,23.29
2024-04-06T09:09:44.454Z,23.29
2024-04-06T09:10:44.470Z,23.29
2024-04-06T09:11:44.474Z,23.30
2024-04-06T09:12:44.485Z,23.30
2024-04-06T09:13:44.575Z,23.30
2024-04-06T09:14:44.452Z,23.31
2024-04-06T09:15:44.460Z,23.31
2024-04-06T09:16:44.466Z,23.32
2024-04-06T09:17:44.470Z,23.32
2024-04-06T09:18:44.466Z,23.32
2024-04-06T09:19:44.459Z,23.32
2024-04-06T09:20:44.481Z,23.33
2024-04-06T09:21:44.465Z,23.33
2024-04-06T09:22:44.540Z,23.33
2024-04-06T09:23:44.612Z,23.34
2024-04-06T09:24:44.752Z,23.34
2024-04-06T09:25:44.852Z,23.34
2024-04-06T09:26:44.942Z,23.34
2024-04-06T09:27:45.083Z,23.35
2024-04-06T09:28:45.175Z,23.36
2024-04-06T09:29:45.269Z,23.36
2024-04-06T09:30:45.372Z,23.37
2024-04-06T09:31:45.453Z,23.38
2024-04-06T09:32:45.561Z,23.38
2024-04-06T09:33:46.543Z,23.38
2024-04-06T09:34:45.778Z,23.39
2024-04-06T09:35:46.778Z,23.39
2024-04-06T09:36:45.794Z,23.39
2024-04-06T09:37:45.784Z,23.40
2024-04-06T09:38:45.786Z,23.40
2024-04-06T09:39:45.827Z,23.41
2024-04-06T09:40:45.798Z,23.41
2024-04-06T09:41:45.789Z,23.42
2024-04-06T09:42:45.823Z,23.42
2024-04-06T09:43:45.843Z,23.43
2024-04-06T09:44:45.949Z,23.43
2024-04-06T09:45:46.070Z,23.44
2024-04-06T09:46:46.204Z,23.45
2024-04-06T09:47:46.281Z,23.45
2024-04-06T09:48:46.395Z,23.45
2024-04-06T09:49:46.496Z,23.45
2024-04-06T09:50:46.605Z,23.46
2024-04-06T09:51:46.719Z,23.46
2024-04-06T09:52:46.826Z,23.48
2024-04-06T09:53:46.945Z,23.48
2024-04-06T09:54:47.044Z,23.48
2024-04-06T09:55:47.157Z,23.49
2024-04-06T09:56:47.262Z,23.49
2024-04-06T09:57:47.370Z,23.50
2024-04-06T09:58:47.475Z,23.51
2024-04-06T09:59:47.590Z,23.51
2024-04-06T10:00:47.696Z,23.52
2024-04-06T10:01:47.808Z,23.53
2024-04-06T10:02:47.919Z,23.53
2024-04-06T10:03:48.069Z,23.54
2024-04-06T10:04:48.157Z,23.54
2024-04-06T10:05:48.307Z,23.55
2024-04-06T10:06:48.381Z,23.55
2024-04-06T10:07:48.497Z,23.55
2024-04-06T10:08:48.614Z,23.55
2024-04-06T10:09:48.712Z,23.56
2024-04-06T10:10:48.838Z,23.58
2024-04-06T10:11:48.937Z,23.58
2024-04-06T10:12:49.042Z,23.59
2024-04-06T10:13:49.150Z,23.59
2024-04-06T10:14:49.270Z,23.60
2024-04-06T10:15:49.417Z,23.60
2024-04-06T10:16:49.511Z,23.61
2024-04-06T10:17:49.641Z,23.62
2024-04-06T10:18:49.768Z,23.62
2024-04-06T10:19:49.880Z,23.63
2024-04-06T10:20:49.989Z,23.63
2024-04-06T10:21:50.122Z,23.64
2024-04-06T10:22:50.201Z,23.65
2024-04-06T10:23:50.343Z,23.65
2024-04-06T10:24:50.454Z,23.66
2024-04-06T10:25:50.598Z,23.67
2024-04-06T10:26:50.711Z,23.68
2024-04-06T10:27:50.803Z,23.69
2024-04-06T10:28:50.893Z,23.69
2024-04-06T10:29:50.982Z,23.70
2024-04-06T10:30:51.092Z,23.71
2024-04-06T10:31:51.281Z,23.71
2024-04-06T10:32:51.316Z,23.72
2024-04-06T10:33:51.417Z,23.73
2024-04-06T10:34:51.548Z,23.74
2024-04-06T10:35:51.640Z,23.75
2024-04-06T10:36:51.756Z,23.75
2024-04-06T10:37:51.860Z,23.76
2024-04-06T10:38:51.971Z,23.76
2024-04-06T10:39:52.077Z,23.77
2024-04-06T10:40:52.209Z,23.78
2024-04-06T10:41:52.326Z,23.79
2024-04-06T10:42:52.440Z,23.79
2024-04-06T10:43:52.540Z,23.80
2024-04-06T10:44:52.654Z,23.81
2024-04-06T10:45:52.754Z,23.82
2024-04-06T10:46:52.888Z,23.83
2024-04-06T10:47:52.997Z,23.84
2024-04-06T10:48:53.092Z,23.85
2024-04-06T10:49:53.200Z,23.86
2024-04-06T10:50:53.309Z,23.87
2024-04-06T10:51:53.429Z,23.89
2024-04-06T10:52:53.522Z,23.89
2024-04-06T10:53:53.630Z,23.90
2024-04-06T10:54:53.745Z,23.91
2024-04-06T10:55:53.842Z,23.92
2024-04-06T10:56:53.954Z,23.92
2024-04-06T10:57:54.063Z,23.94
2024-04-06T10:58:54.176Z,23.94
2024-04-06T10:59:54.284Z,23.95
2024-04-06T11:00:54.414Z,23.96
2024-04-06T11:01:54.480Z,23.97
2024-04-06T11:02:54.604Z,23.98
2024-04-06T11:03:54.700Z,23.99
2024-04-06T11:04:54.791Z,24.01
2024-04-06T11:05:54.918Z,24.01
2024-04-06T11:06:55.008Z,24.02
2024-04-06T11:07:55.115Z,24.03
2024-04-06T11:08:55.209Z,24.04
2024-04-06T11:09:55.319Z,24.06
2024-04-06T11:10:55.448Z,24.07
2024-04-06T11:11:55.542Z,24.08
2024-04-06T11:12:55.663Z,24.09
2024-04-06T11:13:55.736Z,24.10
2024-04-06T11:14:55.827Z,24.12
2024-04-06T11:15:55.987Z,24.13
2024-04-06T11:16:56.056Z,24.15
2024-04-06T11:17:56.138Z,24.16
2024-04-06T11:18:56.234Z,24.17
2024-04-06T11:19:56.307Z,24.18
2024-04-06T11:20:56.398Z,24.20
2024-04-06T11:21:56.508Z,24.22
2024-04-06T11:22:56.590Z,24.23
2024-04-06T11:23:56.677Z,24.24
2024-04-06T11:24:56.754Z,24.25
2024-04-06T11:25:56.879Z,24.27
2024-04-06T11:26:56.956Z,24.29
2024-04-06T11:27:57.056Z,24.31
2024-04-06T11:28:57.128Z,24.32
2024-04-06T11:29:57.219Z,24.32
2024-04-06T11:30:57.301Z,24.34
2024-04-06T11:31:57.381Z,24.35
2024-04-06T11:32:57.454Z,24.37
2024-04-06T11:33:57.547Z,24.38
2024-04-06T11:34:57.627Z,24.40
2024-04-06T11:35:57.731Z,24.42
2024-04-06T11:36:57.849Z,24.43
2024-04-06T11:37:57.848Z,24.45
2024-04-06T11:38:57.939Z,24.47
2024-04-06T11:39:58.025Z,24.48
2024-04-06T11:40:58.078Z,24.50
2024-04-06T11:41:58.153Z,24.52
2024-04-06T11:42:58.226Z,24.53
2024-04-06T11:43:58.280Z,24.55
2024-04-06T11:44:58.352Z,24.57
2024-04-06T11:45:58.447Z,24.60
2024-04-06T11:46:58.558Z,24.61
2024-04-06T11:47:58.551Z,24.63
2024-04-06T11:48:58.616Z,24.65
2024-04-06T11:49:58.683Z,24.67
2024-04-06T11:50:58.736Z,24.68
2024-04-06T11:51:58.800Z,24.69
2024-04-06T11:52:58.838Z,24.72
2024-04-06T11:53:58.915Z,24.74
2024-04-06T11:54:58.975Z,24.77
2024-04-06T11:55:59.027Z,24.79
2024-04-06T11:56:59.082Z,24.81
2024-04-06T11:57:59.147Z,24.83
2024-04-06T11:58:59.199Z,24.85
2024-04-06T11:59:59.275Z,24.87
2024-04-06T12:00:59.365Z,24.89
2024-04-06T12:01:59.445Z,24.91
2024-04-06T12:02:59.488Z,24.93
2024-04-06T12:03:59.579Z,24.95
2024-04-06T12:04:59.636Z,24.98
2024-04-06T12:05:59.723Z,24.99
2024-04-06T12:06:59.790Z,25.02
2024-04-06T12:07:59.857Z,25.04
2024-04-06T12:08:59.933Z,25.07
2024-04-06T12:10:00.018Z,25.10
2024-04-06T12:11:00.109Z,25.11
2024-04-06T12:12:00.204Z,25.14
2024-04-06T12:13:00.255Z,25.16
2024-04-06T12:14:00.352Z,25.18
2024-04-06T12:15:00.418Z,25.20
2024-04-06T12:16:00.558Z,25.22
2024-04-06T12:17:00.602Z,25.24
2024-04-06T12:18:00.683Z,25.28
2024-04-06T12:19:00.805Z,25.31
2024-04-06T12:20:00.906Z,25.33
2024-04-06T12:21:00.977Z,25.35
2024-04-06T12:22:01.594Z,25.38
2024-04-06T12:23:01.103Z,25.40
2024-04-06T12:24:02.104Z,25.43
2024-04-06T12:25:01.174Z,25.45
2024-04-06T12:26:01.236Z,25.49
2024-04-06T12:27:01.294Z,25.52
2024-04-06T12:28:01.346Z,25.54
2024-04-06T12:29:01.378Z,25.57
2024-04-06T12:30:01.436Z,25.61
2024-04-06T12:31:01.476Z,25.63
2024-04-06T12:32:01.564Z,25.67
2024-04-06T12:33:01.659Z,25.69
2024-04-06T12:34:01.744Z,25.72
2024-04-06T12:35:01.825Z,25.75
2024-04-06T12:36:01.936Z,25.78
2024-04-06T12:37:02.093Z,25.81
2024-04-06T12:38:02.120Z,25.85
2024-04-06T12:39:02.210Z,25.88
2024-04-06T12:40:02.305Z,25.93
2024-04-06T12:41:02.408Z,25.99
2024-04-06T12:42:02.498Z,26.06
2024-04-06T12:43:02.586Z,26.14
2024-04-06T12:44:02.697Z,26.22
2024-04-06T12:45:02.807Z,26.28
2024-04-06T12:46:02.902Z,26.36
2024-04-06T12:47:02.996Z,26.42
2024-04-06T12:48:03.132Z,26.48
2024-04-06T12:49:03.264Z,26.53
2024-04-06T12:50:03.339Z,26.61
2024-04-06T12:51:05.500Z,26.67
2024-04-06T12:52:03.442Z,26.76
2024-04-06T12:53:03.479Z,26.81
2024-04-06T12:54:03.496Z,26.86
2024-04-06T12:55:03.496Z,26.91
2024-04-06T12:56:03.506Z,26.95
2024-04-06T12:57:03.496Z,26.98
2024-04-06T12:58:03.526Z,27.00
2024-04-06T12:59:03.488Z,27.02
2024-04-06T13:00:03.514Z,27.05